sensor_id;sensor_type;location;lat;lon;timestamp;temperature;humidity
15364;DHT22;7781;49.690;6.472;2023-07-13T00:00:00;14.50;99.90
15364;DHT22;7781;49.690;6.472;2023-07-13T00:02:31;14.50;99.90
15364;DHT22;7781;49.690;6.472;2023-07-13T00:05:01;14.50;99.90
15364;DHT22;7781;49.690;6.472;2023-07-13T00:07:30;14.60;99.90
15364;DHT22;7781;49.690;6.472;2023-07-13T00:09:59;14.70;99.90
15364;DHT22;7781;49.690;6.472;2023-07-13T00:12:30;14.80;99.90
15364;DHT22;7781;49.690;6.472;2023-07-13T00:15:01;14.90;99.90
15364;DHT22;7781;49.690;6.472;2023-07-13T00:17:30;14.90;99.90
15364;DHT22;7781;49.690;6.472;2023-07-13T00:20:00;15.00;99.90
15364;DHT22;7781;49.690;6.472;2023-07-13T00:22:29;15.00;99.90
15364;DHT22;7781;49.690;6.472;2023-07-13T00:24:57;15.10;99.90
15364;DHT22;7781;49.690;6.472;2023-07-13T00:27:26;15.20;99.90
15364;DHT22;7781;49.690;6.472;2023-07-13T00:29:58;15.20;99.90
15364;DHT22;7781;49.690;6.472;2023-07-13T00:32:27;15.20;99.90
15364;DHT22;7781;49.690;6.472;2023-07-13T00:34:57;15.20;99.90
15364;DHT22;7781;49.690;6.472;2023-07-13T00:37:30;15.20;99.90
15364;DHT22;7781;49.690;6.472;2023-07-13T00:39:59;15.30;99.90
15364;DHT22;7781;49.690;6.472;2023-07-13T00:42:28;15.30;99.90
15364;DHT22;7781;49.690;6.472;2023-07-13T00:47:51;15.30;99.90
15364;DHT22;7781;49.690;6.472;2023-07-13T00:50:21;15.30;99.90
15364;DHT22;7781;49.690;6.472;2023-07-13T00:52:55;15.30;99.90
15364;DHT22;7781;49.690;6.472;2023-07-13T00:55:24;15.30;99.90
15364;DHT22;7781;49.690;6.472;2023-07-13T00:57:53;15.30;99.90
15364;DHT22;7781;49.690;6.472;2023-07-13T01:00:24;15.20;99.90
15364;DHT22;7781;49.690;6.472;2023-07-13T01:02:55;15.30;99.90
15364;DHT22;7781;49.690;6.472;2023-07-13T01:05:25;15.30;99.90
15364;DHT22;7781;49.690;6.472;2023-07-13T01:07:56;15.30;99.90
15364;DHT22;7781;49.690;6.472;2023-07-13T01:10:25;15.30;99.90
15364;DHT22;7781;49.690;6.472;2023-07-13T01:12:54;15.40;99.90
15364;DHT22;7781;49.690;6.472;2023-07-13T01:15:36;15.40;99.90
15364;DHT22;7781;49.690;6.472;2023-07-13T01:18:07;15.40;99.90
15364;DHT22;7781;49.690;6.472;2023-07-13T01:20:40;15.40;99.90
15364;DHT22;7781;49.690;6.472;2023-07-13T01:23:11;15.40;99.90
15364;DHT22;7781;49.690;6.472;2023-07-13T01:25:41;15.40;99.90
15364;DHT22;7781;49.690;6.472;2023-07-13T01:28:09;15.40;99.90
15364;DHT22;7781;49.690;6.472;2023-07-13T01:30:40;15.50;99.90
15364;DHT22;7781;49.690;6.472;2023-07-13T01:33:13;15.40;99.90
15364;DHT22;7781;49.690;6.472;2023-07-13T01:35:42;15.40;99.90
15364;DHT22;7781;49.690;6.472;2023-07-13T01:38:14;15.40;99.90
15364;DHT22;7781;49.690;6.472;2023-07-13T01:40:43;15.40;99.90
15364;DHT22;7781;49.690;6.472;2023-07-13T01:43:11;15.40;99.90
15364;DHT22;7781;49.690;6.472;2023-07-13T01:45:42;15.50;99.90
15364;DHT22;7781;49.690;6.472;2023-07-13T01:48:12;15.50;99.90
15364;DHT22;7781;49.690;6.472;2023-07-13T01:50:41;15.50;99.90
15364;DHT22;7781;49.690;6.472;2023-07-13T01:53:11;15.50;99.90
15364;DHT22;7781;49.690;6.472;2023-07-13T01:55:41;15.50;99.90
15364;DHT22;7781;49.690;6.472;2023-07-13T01:58:09;15.50;99.90
15364;DHT22;7781;49.690;6.472;2023-07-13T02:00:38;15.50;99.90
15364;DHT22;7781;49.690;6.472;2023-07-13T02:03:07;15.50;99.90
15364;DHT22;7781;49.690;6.472;2023-07-13T02:05:36;15.50;99.90
15364;DHT22;7781;49.690;6.472;2023-07-13T02:08:06;15.50;99.90
15364;DHT22;7781;49.690;6.472;2023-07-13T02:10:37;15.50;99.90
15364;DHT22;7781;49.690;6.472;2023-07-13T02:13:06;15.60;99.90
15364;DHT22;7781;49.690;6.472;2023-07-13T02:15:38;15.60;99.90
15364;DHT22;7781;49.690;6.472;2023-07-13T02:18:08;15.50;99.90
15364;DHT22;7781;49.690;6.472;2023-07-13T02:20:37;15.50;99.90
15364;DHT22;7781;49.690;6.472;2023-07-13T02:23:05;15.50;99.90
15364;DHT22;7781;49.690;6.472;2023-07-13T02:25:37;15.50;99.90
15364;DHT22;7781;49.690;6.472;2023-07-13T02:28:07;15.40;99.90
15364;DHT22;7781;49.690;6.472;2023-07-13T02:30:36;15.40;99.90
15364;DHT22;7781;49.690;6.472;2023-07-13T02:33:06;15.40;99.90
15364;DHT22;7781;49.690;6.472;2023-07-13T02:35:35;15.40;99.90
15364;DHT22;7781;49.690;6.472;2023-07-13T02:38:04;15.50;99.90
15364;DHT22;7781;49.690;6.472;2023-07-13T02:40:32;15.50;99.90
15364;DHT22;7781;49.690;6.472;2023-07-13T02:43:04;15.40;99.90
15364;DHT22;7781;49.690;6.472;2023-07-13T02:45:34;15.40;99.90
15364;DHT22;7781;49.690;6.472;2023-07-13T02:48:03;15.30;99.90
15364;DHT22;7781;49.690;6.472;2023-07-13T02:50:32;15.40;99.90
15364;DHT22;7781;49.690;6.472;2023-07-13T02:53:00;15.30;99.90
15364;DHT22;7781;49.690;6.472;2023-07-13T02:55:30;15.20;99.90
15364;DHT22;7781;49.690;6.472;2023-07-13T02:57:59;15.20;99.90
15364;DHT22;7781;49.690;6.472;2023-07-13T03:00:29;15.20;99.90
15364;DHT22;7781;49.690;6.472;2023-07-13T03:02:58;15.10;99.90
15364;DHT22;7781;49.690;6.472;2023-07-13T03:05:28;15.00;99.90
15364;DHT22;7781;49.690;6.472;2023-07-13T03:07:57;14.90;99.90
15364;DHT22;7781;49.690;6.472;2023-07-13T03:10:28;14.90;99.90
15364;DHT22;7781;49.690;6.472;2023-07-13T03:12:56;14.90;99.90
15364;DHT22;7781;49.690;6.472;2023-07-13T03:15:28;14.90;99.90
15364;DHT22;7781;49.690;6.472;2023-07-13T03:17:58;14.90;99.90
15364;DHT22;7781;49.690;6.472;2023-07-13T03:20:27;14.90;99.90
15364;DHT22;7781;49.690;6.472;2023-07-13T03:22:56;14.90;99.90
15364;DHT22;7781;49.690;6.472;2023-07-13T03:25:28;14.80;99.90
15364;DHT22;7781;49.690;6.472;2023-07-13T03:27:58;14.90;99.90
15364;DHT22;7781;49.690;6.472;2023-07-13T03:30:28;14.90;99.90
15364;DHT22;7781;49.690;6.472;2023-07-13T03:32:58;15.00;99.90
15364;DHT22;7781;49.690;6.472;2023-07-13T03:35:27;14.90;99.90
15364;DHT22;7781;49.690;6.472;2023-07-13T03:37:56;14.90;99.90
15364;DHT22;7781;49.690;6.472;2023-07-13T03:40:29;14.90;99.90
15364;DHT22;7781;49.690;6.472;2023-07-13T03:42:59;14.90;99.90
15364;DHT22;7781;49.690;6.472;2023-07-13T03:45:32;14.90;99.90
15364;DHT22;7781;49.690;6.472;2023-07-13T03:48:01;15.00;99.90
15364;DHT22;7781;49.690;6.472;2023-07-13T03:50:29;15.10;99.90
15364;DHT22;7781;49.690;6.472;2023-07-13T03:53:00;15.20;99.90
15364;DHT22;7781;49.690;6.472;2023-07-13T03:55:30;15.20;99.90
15364;DHT22;7781;49.690;6.472;2023-07-13T03:58:01;15.30;99.90
15364;DHT22;7781;49.690;6.472;2023-07-13T04:00:52;15.30;99.90
15364;DHT22;7781;49.690;6.472;2023-07-13T04:03:23;15.40;99.90
15364;DHT22;7781;49.690;6.472;2023-07-13T04:05:56;15.40;99.90
15364;DHT22;7781;49.690;6.472;2023-07-13T04:08:27;15.30;99.90
15364;DHT22;7781;49.690;6.472;2023-07-13T04:10:57;15.30;99.90
15364;DHT22;7781;49.690;6.472;2023-07-13T04:13:27;15.30;99.90
15364;DHT22;7781;49.690;6.472;2023-07-13T04:15:57;15.20;99.90
15364;DHT22;7781;49.690;6.472;2023-07-13T04:18:25;15.30;99.90
15364;DHT22;7781;49.690;6.472;2023-07-13T04:20:55;15.30;99.90
15364;DHT22;7781;49.690;6.472;2023-07-13T04:23:23;15.30;99.90
15364;DHT22;7781;49.690;6.472;2023-07-13T04:25:53;15.40;99.90
15364;DHT22;7781;49.690;6.472;2023-07-13T04:28:22;15.40;99.90
15364;DHT22;7781;49.690;6.472;2023-07-13T04:30:52;15.40;99.90
15364;DHT22;7781;49.690;6.472;2023-07-13T04:33:22;15.50;99.90
15364;DHT22;7781;49.690;6.472;2023-07-13T04:35:52;15.60;99.90
15364;DHT22;7781;49.690;6.472;2023-07-13T04:38:26;15.70;99.90
15364;DHT22;7781;49.690;6.472;2023-07-13T04:40:55;15.80;99.90
15364;DHT22;7781;49.690;6.472;2023-07-13T04:43:27;15.90;99.90
15364;DHT22;7781;49.690;6.472;2023-07-13T04:45:57;16.00;99.90
15364;DHT22;7781;49.690;6.472;2023-07-13T04:48:28;16.00;99.90
15364;DHT22;7781;49.690;6.472;2023-07-13T04:50:58;16.10;99.90
15364;DHT22;7781;49.690;6.472;2023-07-13T04:53:29;16.10;99.90
15364;DHT22;7781;49.690;6.472;2023-07-13T04:56:00;16.10;99.90
15364;DHT22;7781;49.690;6.472;2023-07-13T04:58:30;16.10;99.90
15364;DHT22;7781;49.690;6.472;2023-07-13T05:01:02;16.00;99.90
15364;DHT22;7781;49.690;6.472;2023-07-13T05:03:33;16.10;99.90
15364;DHT22;7781;49.690;6.472;2023-07-13T05:06:04;16.10;99.90
15364;DHT22;7781;49.690;6.472;2023-07-13T05:08:33;16.20;99.90
15364;DHT22;7781;49.690;6.472;2023-07-13T05:11:03;16.20;99.90
15364;DHT22;7781;49.690;6.472;2023-07-13T05:13:32;16.30;99.90
15364;DHT22;7781;49.690;6.472;2023-07-13T05:16:04;16.40;99.90
15364;DHT22;7781;49.690;6.472;2023-07-13T05:18:35;16.40;99.90
15364;DHT22;7781;49.690;6.472;2023-07-13T05:21:10;16.30;99.90
15364;DHT22;7781;49.690;6.472;2023-07-13T05:23:39;16.30;99.90
15364;DHT22;7781;49.690;6.472;2023-07-13T05:26:09;16.30;99.90
15364;DHT22;7781;49.690;6.472;2023-07-13T05:28:39;16.30;99.90
15364;DHT22;7781;49.690;6.472;2023-07-13T05:31:09;16.40;99.90
15364;DHT22;7781;49.690;6.472;2023-07-13T05:33:40;16.40;99.90
15364;DHT22;7781;49.690;6.472;2023-07-13T05:36:09;16.50;99.90
15364;DHT22;7781;49.690;6.472;2023-07-13T05:38:37;16.60;99.90
15364;DHT22;7781;49.690;6.472;2023-07-13T05:41:07;16.70;99.90
15364;DHT22;7781;49.690;6.472;2023-07-13T05:43:36;16.80;99.90
15364;DHT22;7781;49.690;6.472;2023-07-13T05:46:05;16.90;99.90
15364;DHT22;7781;49.690;6.472;2023-07-13T05:48:33;16.90;99.90
15364;DHT22;7781;49.690;6.472;2023-07-13T05:51:04;17.00;99.90
15364;DHT22;7781;49.690;6.472;2023-07-13T05:53:34;17.10;99.90
15364;DHT22;7781;49.690;6.472;2023-07-13T05:56:03;17.20;99.90
15364;DHT22;7781;49.690;6.472;2023-07-13T05:58:34;17.30;99.90
15364;DHT22;7781;49.690;6.472;2023-07-13T06:01:04;17.40;99.90
15364;DHT22;7781;49.690;6.472;2023-07-13T06:03:33;17.40;99.90
15364;DHT22;7781;49.690;6.472;2023-07-13T06:06:04;17.50;99.90
15364;DHT22;7781;49.690;6.472;2023-07-13T06:08:33;17.60;99.90
15364;DHT22;7781;49.690;6.472;2023-07-13T06:11:05;17.60;99.90
15364;DHT22;7781;49.690;6.472;2023-07-13T06:13:36;17.70;99.90
15364;DHT22;7781;49.690;6.472;2023-07-13T06:16:05;17.70;99.90
15364;DHT22;7781;49.690;6.472;2023-07-13T06:18:34;17.80;99.90
15364;DHT22;7781;49.690;6.472;2023-07-13T06:21:08;17.80;99.90
15364;DHT22;7781;49.690;6.472;2023-07-13T06:23:37;17.90;99.90
15364;DHT22;7781;49.690;6.472;2023-07-13T06:26:06;17.90;99.90
15364;DHT22;7781;49.690;6.472;2023-07-13T06:28:35;17.90;99.90
15364;DHT22;7781;49.690;6.472;2023-07-13T06:31:08;17.90;99.90
15364;DHT22;7781;49.690;6.472;2023-07-13T06:33:38;18.00;99.90
15364;DHT22;7781;49.690;6.472;2023-07-13T06:36:09;18.00;99.90
15364;DHT22;7781;49.690;6.472;2023-07-13T06:38:38;18.00;99.90
15364;DHT22;7781;49.690;6.472;2023-07-13T06:41:08;18.10;99.90
15364;DHT22;7781;49.690;6.472;2023-07-13T06:43:37;18.10;99.90
15364;DHT22;7781;49.690;6.472;2023-07-13T06:46:05;18.20;99.90
15364;DHT22;7781;49.690;6.472;2023-07-13T06:48:34;18.20;99.90
15364;DHT22;7781;49.690;6.472;2023-07-13T06:51:03;18.30;99.90
15364;DHT22;7781;49.690;6.472;2023-07-13T06:53:33;18.30;99.90
15364;DHT22;7781;49.690;6.472;2023-07-13T06:56:02;18.30;99.90
15364;DHT22;7781;49.690;6.472;2023-07-13T06:58:30;18.50;99.90
15364;DHT22;7781;49.690;6.472;2023-07-13T07:00:59;18.50;99.90
15364;DHT22;7781;49.690;6.472;2023-07-13T07:03:27;18.70;99.90
15364;DHT22;7781;49.690;6.472;2023-07-13T07:06:00;18.70;99.90
15364;DHT22;7781;49.690;6.472;2023-07-13T07:08:29;18.70;99.90
15364;DHT22;7781;49.690;6.472;2023-07-13T07:10:59;18.80;99.90
15364;DHT22;7781;49.690;6.472;2023-07-13T07:13:27;19.00;99.90
15364;DHT22;7781;49.690;6.472;2023-07-13T07:15:57;19.00;99.90
15364;DHT22;7781;49.690;6.472;2023-07-13T07:18:27;19.10;99.90
15364;DHT22;7781;49.690;6.472;2023-07-13T07:20:55;19.20;99.90
15364;DHT22;7781;49.690;6.472;2023-07-13T07:23:24;19.30;99.90
15364;DHT22;7781;49.690;6.472;2023-07-13T07:25:52;19.40;99.90
15364;DHT22;7781;49.690;6.472;2023-07-13T07:28:22;19.40;99.90
15364;DHT22;7781;49.690;6.472;2023-07-13T07:30:55;19.50;99.90
15364;DHT22;7781;49.690;6.472;2023-07-13T07:33:27;19.60;99.90
15364;DHT22;7781;49.690;6.472;2023-07-13T07:35:55;19.70;99.90
15364;DHT22;7781;49.690;6.472;2023-07-13T07:38:27;19.80;99.90
15364;DHT22;7781;49.690;6.472;2023-07-13T07:40:55;19.80;99.90
15364;DHT22;7781;49.690;6.472;2023-07-13T07:43:28;19.90;99.90
15364;DHT22;7781;49.690;6.472;2023-07-13T07:45:57;20.00;99.90
15364;DHT22;7781;49.690;6.472;2023-07-13T07:48:29;20.10;99.90
15364;DHT22;7781;49.690;6.472;2023-07-13T07:50:57;20.20;99.90
15364;DHT22;7781;49.690;6.472;2023-07-13T07:53:26;20.30;99.90
15364;DHT22;7781;49.690;6.472;2023-07-13T07:55:54;20.40;99.90
15364;DHT22;7781;49.690;6.472;2023-07-13T07:58:44;20.40;99.90
15364;DHT22;7781;49.690;6.472;2023-07-13T08:01:15;20.50;99.90
15364;DHT22;7781;49.690;6.472;2023-07-13T08:03:47;20.50;99.90
15364;DHT22;7781;49.690;6.472;2023-07-13T08:06:18;20.50;99.90
15364;DHT22;7781;49.690;6.472;2023-07-13T08:08:53;20.50;99.90
15364;DHT22;7781;49.690;6.472;2023-07-13T08:11:22;20.60;99.90
15364;DHT22;7781;49.690;6.472;2023-07-13T08:13:55;20.60;99.90
15364;DHT22;7781;49.690;6.472;2023-07-13T08:16:24;20.70;99.90
15364;DHT22;7781;49.690;6.472;2023-07-13T08:18:53;20.60;99.90
15364;DHT22;7781;49.690;6.472;2023-07-13T08:21:21;20.70;99.90
15364;DHT22;7781;49.690;6.472;2023-07-13T08:23:50;20.60;99.90
15364;DHT22;7781;49.690;6.472;2023-07-13T08:26:19;20.60;99.90
15364;DHT22;7781;49.690;6.472;2023-07-13T08:28:50;20.70;99.90
15364;DHT22;7781;49.690;6.472;2023-07-13T08:31:20;20.70;99.90
15364;DHT22;7781;49.690;6.472;2023-07-13T08:33:49;20.70;99.90
15364;DHT22;7781;49.690;6.472;2023-07-13T08:36:19;20.80;99.90
15364;DHT22;7781;49.690;6.472;2023-07-13T08:38:48;20.90;99.90
15364;DHT22;7781;49.690;6.472;2023-07-13T08:41:17;21.00;99.90
15364;DHT22;7781;49.690;6.472;2023-07-13T08:43:51;21.00;99.90
15364;DHT22;7781;49.690;6.472;2023-07-13T08:46:28;21.10;99.90
15364;DHT22;7781;49.690;6.472;2023-07-13T08:49:03;21.00;99.90
15364;DHT22;7781;49.690;6.472;2023-07-13T08:51:38;21.00;99.90
15364;DHT22;7781;49.690;6.472;2023-07-13T08:54:20;20.90;99.90
15364;DHT22;7781;49.690;6.472;2023-07-13T08:56:50;20.90;99.90
15364;DHT22;7781;49.690;6.472;2023-07-13T08:59:25;21.00;99.90
15364;DHT22;7781;49.690;6.472;2023-07-13T09:02:09;21.00;99.90
15364;DHT22;7781;49.690;6.472;2023-07-13T09:04:48;21.10;99.90
15364;DHT22;7781;49.690;6.472;2023-07-13T09:07:28;21.20;99.90
15364;DHT22;7781;49.690;6.472;2023-07-13T09:10:05;21.20;99.90
15364;DHT22;7781;49.690;6.472;2023-07-13T09:12:46;21.20;99.90
15364;DHT22;7781;49.690;6.472;2023-07-13T09:15:26;21.10;99.90
15364;DHT22;7781;49.690;6.472;2023-07-13T09:18:03;21.30;99.90
15364;DHT22;7781;49.690;6.472;2023-07-13T09:20:36;21.70;99.90
15364;DHT22;7781;49.690;6.472;2023-07-13T09:23:11;22.00;99.90
15364;DHT22;7781;49.690;6.472;2023-07-13T09:25:41;22.10;99.90
15364;DHT22;7781;49.690;6.472;2023-07-13T09:28:17;22.10;99.90
15364;DHT22;7781;49.690;6.472;2023-07-13T09:30:52;21.90;99.90
15364;DHT22;7781;49.690;6.472;2023-07-13T09:33:26;21.90;99.90
15364;DHT22;7781;49.690;6.472;2023-07-13T09:35:58;21.90;99.90
15364;DHT22;7781;49.690;6.472;2023-07-13T09:38:28;22.00;99.90
15364;DHT22;7781;49.690;6.472;2023-07-13T09:41:18;22.10;99.90
15364;DHT22;7781;49.690;6.472;2023-07-13T09:44:08;22.50;99.90
15364;DHT22;7781;49.690;6.472;2023-07-13T09:46:52;22.70;99.90
15364;DHT22;7781;49.690;6.472;2023-07-13T09:49:25;22.80;99.90
15364;DHT22;7781;49.690;6.472;2023-07-13T09:51:58;22.90;99.90
15364;DHT22;7781;49.690;6.472;2023-07-13T09:54:27;22.90;99.90
15364;DHT22;7781;49.690;6.472;2023-07-13T09:56:56;23.10;99.90
15364;DHT22;7781;49.690;6.472;2023-07-13T09:59:29;23.20;99.90
15364;DHT22;7781;49.690;6.472;2023-07-13T10:01:59;23.40;99.90
15364;DHT22;7781;49.690;6.472;2023-07-13T10:04:34;23.30;99.90
15364;DHT22;7781;49.690;6.472;2023-07-13T10:07:06;23.10;99.90
15364;DHT22;7781;49.690;6.472;2023-07-13T10:09:55;23.00;99.90
15364;DHT22;7781;49.690;6.472;2023-07-13T10:12:25;22.80;99.90
15364;DHT22;7781;49.690;6.472;2023-07-13T10:14:57;22.60;99.90
15364;DHT22;7781;49.690;6.472;2023-07-13T10:17:47;22.70;99.90
15364;DHT22;7781;49.690;6.472;2023-07-13T10:20:18;23.00;99.90
15364;DHT22;7781;49.690;6.472;2023-07-13T10:22:53;23.20;99.90
15364;DHT22;7781;49.690;6.472;2023-07-13T10:25:27;23.40;99.90
15364;DHT22;7781;49.690;6.472;2023-07-13T10:28:02;23.40;99.90
15364;DHT22;7781;49.690;6.472;2023-07-13T10:30:34;23.00;99.90
15364;DHT22;7781;49.690;6.472;2023-07-13T10:33:10;22.60;99.90
15364;DHT22;7781;49.690;6.472;2023-07-13T10:35:43;22.50;99.90
15364;DHT22;7781;49.690;6.472;2023-07-13T10:38:15;22.60;99.90
15364;DHT22;7781;49.690;6.472;2023-07-13T10:40:51;22.80;99.90
15364;DHT22;7781;49.690;6.472;2023-07-13T10:43:27;23.10;99.90
15364;DHT22;7781;49.690;6.472;2023-07-13T10:45:59;23.30;99.90
15364;DHT22;7781;49.690;6.472;2023-07-13T10:48:28;23.30;99.90
15364;DHT22;7781;49.690;6.472;2023-07-13T10:51:01;23.30;99.90
15364;DHT22;7781;49.690;6.472;2023-07-13T10:53:32;23.40;99.90
15364;DHT22;7781;49.690;6.472;2023-07-13T10:56:03;23.50;99.90
15364;DHT22;7781;49.690;6.472;2023-07-13T10:58:36;23.80;99.90
15364;DHT22;7781;49.690;6.472;2023-07-13T11:01:10;24.00;99.90
15364;DHT22;7781;49.690;6.472;2023-07-13T11:03:48;24.00;99.90
15364;DHT22;7781;49.690;6.472;2023-07-13T11:06:34;23.80;99.90
15364;DHT22;7781;49.690;6.472;2023-07-13T11:09:19;23.60;99.90
15364;DHT22;7781;49.690;6.472;2023-07-13T11:11:48;23.60;99.90
15364;DHT22;7781;49.690;6.472;2023-07-13T11:14:29;23.40;99.90
15364;DHT22;7781;49.690;6.472;2023-07-13T11:16:58;23.70;99.90
15364;DHT22;7781;49.690;6.472;2023-07-13T11:19:38;23.90;99.90
15364;DHT22;7781;49.690;6.472;2023-07-13T11:22:20;24.20;99.90
15364;DHT22;7781;49.690;6.472;2023-07-13T11:24:57;24.00;99.90
15364;DHT22;7781;49.690;6.472;2023-07-13T11:27:37;23.90;99.90
15364;DHT22;7781;49.690;6.472;2023-07-13T11:30:18;23.80;99.90
15364;DHT22;7781;49.690;6.472;2023-07-13T11:32:52;23.60;99.90
15364;DHT22;7781;49.690;6.472;2023-07-13T11:35:35;23.60;99.90
15364;DHT22;7781;49.690;6.472;2023-07-13T11:38:14;23.70;99.90
15364;DHT22;7781;49.690;6.472;2023-07-13T11:40:45;23.80;99.90
15364;DHT22;7781;49.690;6.472;2023-07-13T11:43:19;23.90;99.90
15364;DHT22;7781;49.690;6.472;2023-07-13T11:45:51;23.90;99.90
15364;DHT22;7781;49.690;6.472;2023-07-13T11:48:22;23.80;99.90
15364;DHT22;7781;49.690;6.472;2023-07-13T11:51:00;23.90;99.90
15364;DHT22;7781;49.690;6.472;2023-07-13T11:53:37;24.00;99.90
15364;DHT22;7781;49.690;6.472;2023-07-13T11:56:07;24.30;99.90
15364;DHT22;7781;49.690;6.472;2023-07-13T11:58:37;24.10;99.90
15364;DHT22;7781;49.690;6.472;2023-07-13T12:01:10;23.70;99.90
15364;DHT22;7781;49.690;6.472;2023-07-13T12:03:46;23.70;99.90
15364;DHT22;7781;49.690;6.472;2023-07-13T12:06:26;23.50;99.90
15364;DHT22;7781;49.690;6.472;2023-07-13T12:08:59;23.30;99.90
15364;DHT22;7781;49.690;6.472;2023-07-13T12:11:34;23.30;99.90
15364;DHT22;7781;49.690;6.472;2023-07-13T12:14:14;23.30;99.90
15364;DHT22;7781;49.690;6.472;2023-07-13T12:16:44;23.20;99.90
15364;DHT22;7781;49.690;6.472;2023-07-13T12:19:18;23.20;99.90
15364;DHT22;7781;49.690;6.472;2023-07-13T12:21:48;23.30;99.90
15364;DHT22;7781;49.690;6.472;2023-07-13T12:24:20;23.50;99.90
15364;DHT22;7781;49.690;6.472;2023-07-13T12:26:52;24.00;99.90
15364;DHT22;7781;49.690;6.472;2023-07-13T12:29:21;24.40;99.90
15364;DHT22;7781;49.690;6.472;2023-07-13T12:31:52;24.70;99.90
15364;DHT22;7781;49.690;6.472;2023-07-13T12:34:26;24.70;99.90
15364;DHT22;7781;49.690;6.472;2023-07-13T12:36:56;24.50;99.90
15364;DHT22;7781;49.690;6.472;2023-07-13T12:39:32;24.90;99.90
15364;DHT22;7781;49.690;6.472;2023-07-13T12:42:18;25.10;99.90
15364;DHT22;7781;49.690;6.472;2023-07-13T12:44:53;25.10;99.90
15364;DHT22;7781;49.690;6.472;2023-07-13T12:47:22;24.90;99.90
15364;DHT22;7781;49.690;6.472;2023-07-13T12:49:55;24.40;99.90
15364;DHT22;7781;49.690;6.472;2023-07-13T12:52:30;24.10;99.90
15364;DHT22;7781;49.690;6.472;2023-07-13T12:55:07;23.70;99.90
15364;DHT22;7781;49.690;6.472;2023-07-13T12:57:49;23.60;99.90
15364;DHT22;7781;49.690;6.472;2023-07-13T13:00:23;23.70;99.90
15364;DHT22;7781;49.690;6.472;2023-07-13T13:02:54;23.60;99.90
15364;DHT22;7781;49.690;6.472;2023-07-13T13:05:44;23.40;99.90
15364;DHT22;7781;49.690;6.472;2023-07-13T13:08:14;23.20;99.90
15364;DHT22;7781;49.690;6.472;2023-07-13T13:10:49;23.10;99.90
15364;DHT22;7781;49.690;6.472;2023-07-13T13:13:17;23.10;99.90
15364;DHT22;7781;49.690;6.472;2023-07-13T13:15:46;23.10;99.90
15364;DHT22;7781;49.690;6.472;2023-07-13T13:18:18;23.00;99.90
15364;DHT22;7781;49.690;6.472;2023-07-13T13:20:48;23.00;99.90
15364;DHT22;7781;49.690;6.472;2023-07-13T13:23:20;22.90;99.90
15364;DHT22;7781;49.690;6.472;2023-07-13T13:25:52;22.70;99.90
15364;DHT22;7781;49.690;6.472;2023-07-13T13:28:21;22.70;99.90
15364;DHT22;7781;49.690;6.472;2023-07-13T13:30:51;22.60;99.90
15364;DHT22;7781;49.690;6.472;2023-07-13T13:33:21;22.50;99.90
15364;DHT22;7781;49.690;6.472;2023-07-13T13:35:50;22.60;99.90
15364;DHT22;7781;49.690;6.472;2023-07-13T13:38:22;22.60;99.90
15364;DHT22;7781;49.690;6.472;2023-07-13T13:40:54;22.70;99.90
15364;DHT22;7781;49.690;6.472;2023-07-13T13:43:25;22.80;99.90
15364;DHT22;7781;49.690;6.472;2023-07-13T13:45:57;22.90;99.90
15364;DHT22;7781;49.690;6.472;2023-07-13T13:48:30;23.00;99.90
15364;DHT22;7781;49.690;6.472;2023-07-13T13:51:00;23.20;99.90
15364;DHT22;7781;49.690;6.472;2023-07-13T13:53:32;23.40;99.90
15364;DHT22;7781;49.690;6.472;2023-07-13T13:56:03;23.40;99.90
15364;DHT22;7781;49.690;6.472;2023-07-13T13:58:32;23.60;99.90
15364;DHT22;7781;49.690;6.472;2023-07-13T14:01:02;23.60;99.90
15364;DHT22;7781;49.690;6.472;2023-07-13T14:03:35;23.90;99.90
15364;DHT22;7781;49.690;6.472;2023-07-13T14:06:04;24.00;99.90
15364;DHT22;7781;49.690;6.472;2023-07-13T14:08:33;24.10;99.90
15364;DHT22;7781;49.690;6.472;2023-07-13T14:11:04;24.00;99.90
15364;DHT22;7781;49.690;6.472;2023-07-13T14:13:36;23.90;99.90
15364;DHT22;7781;49.690;6.472;2023-07-13T14:16:11;24.10;99.90
15364;DHT22;7781;49.690;6.472;2023-07-13T14:18:42;24.10;99.90
15364;DHT22;7781;49.690;6.472;2023-07-13T14:21:12;23.90;99.90
15364;DHT22;7781;49.690;6.472;2023-07-13T14:23:44;23.90;99.90
15364;DHT22;7781;49.690;6.472;2023-07-13T14:26:18;23.90;99.90
15364;DHT22;7781;49.690;6.472;2023-07-13T14:28:50;24.00;99.90
15364;DHT22;7781;49.690;6.472;2023-07-13T14:31:23;24.10;99.90
15364;DHT22;7781;49.690;6.472;2023-07-13T14:33:58;24.30;99.90
15364;DHT22;7781;49.690;6.472;2023-07-13T14:36:29;24.50;99.90
15364;DHT22;7781;49.690;6.472;2023-07-13T14:39:05;24.50;99.90
15364;DHT22;7781;49.690;6.472;2023-07-13T14:41:41;24.50;99.90
15364;DHT22;7781;49.690;6.472;2023-07-13T14:44:14;24.50;99.90
15364;DHT22;7781;49.690;6.472;2023-07-13T14:46:45;24.70;99.90
15364;DHT22;7781;49.690;6.472;2023-07-13T14:49:22;24.70;99.90
15364;DHT22;7781;49.690;6.472;2023-07-13T14:51:52;24.60;99.90
15364;DHT22;7781;49.690;6.472;2023-07-13T14:54:22;24.70;99.90
15364;DHT22;7781;49.690;6.472;2023-07-13T14:56:55;24.70;99.90
15364;DHT22;7781;49.690;6.472;2023-07-13T14:59:23;24.70;99.90
15364;DHT22;7781;49.690;6.472;2023-07-13T15:01:52;24.70;99.90
15364;DHT22;7781;49.690;6.472;2023-07-13T15:04:20;24.80;99.90
15364;DHT22;7781;49.690;6.472;2023-07-13T15:06:57;25.00;99.90
15364;DHT22;7781;49.690;6.472;2023-07-13T15:09:27;25.10;99.90
15364;DHT22;7781;49.690;6.472;2023-07-13T15:11:58;25.10;99.90
15364;DHT22;7781;49.690;6.472;2023-07-13T15:14:27;25.20;99.90
15364;DHT22;7781;49.690;6.472;2023-07-13T15:16:59;25.60;99.90
15364;DHT22;7781;49.690;6.472;2023-07-13T15:19:28;25.60;99.90
15364;DHT22;7781;49.690;6.472;2023-07-13T15:21:59;25.70;99.90
15364;DHT22;7781;49.690;6.472;2023-07-13T15:24:29;25.90;99.90
15364;DHT22;7781;49.690;6.472;2023-07-13T15:27:00;25.90;99.90
15364;DHT22;7781;49.690;6.472;2023-07-13T15:29:28;26.50;99.90
15364;DHT22;7781;49.690;6.472;2023-07-13T15:31:58;26.50;99.90
15364;DHT22;7781;49.690;6.472;2023-07-13T15:34:27;26.60;99.90
15364;DHT22;7781;49.690;6.472;2023-07-13T15:36:56;26.10;99.90
15364;DHT22;7781;49.690;6.472;2023-07-13T15:39:25;25.80;99.90
15364;DHT22;7781;49.690;6.472;2023-07-13T15:41:54;25.70;99.90
15364;DHT22;7781;49.690;6.472;2023-07-13T15:44:30;26.10;99.90
15364;DHT22;7781;49.690;6.472;2023-07-13T15:46:59;26.40;99.90
15364;DHT22;7781;49.690;6.472;2023-07-13T15:49:30;26.00;99.90
15364;DHT22;7781;49.690;6.472;2023-07-13T15:51:59;25.90;99.90
15364;DHT22;7781;49.690;6.472;2023-07-13T15:54:28;25.60;99.90
15364;DHT22;7781;49.690;6.472;2023-07-13T15:57:03;25.50;99.90
15364;DHT22;7781;49.690;6.472;2023-07-13T15:59:35;25.60;99.90
15364;DHT22;7781;49.690;6.472;2023-07-13T16:02:12;25.60;99.90
15364;DHT22;7781;49.690;6.472;2023-07-13T16:04:41;25.60;99.90
15364;DHT22;7781;49.690;6.472;2023-07-13T16:07:11;25.90;99.90
15364;DHT22;7781;49.690;6.472;2023-07-13T16:09:40;25.90;99.90
15364;DHT22;7781;49.690;6.472;2023-07-13T16:12:10;25.80;99.90
15364;DHT22;7781;49.690;6.472;2023-07-13T16:14:41;25.60;99.90